Flight Track Log - Related Links

Times and Time Zones

All times are in EDT time to prevent confusion due to time zone crossing. See the UAL6285 flight status page for this flight to view local times or setup timezone preferences in your user account.

Time Position Orientation Groundspeed Altitude Reporting Facility
EDT Latitude Longitude Course Direction KTS MPH feet Rate Location/Type
Tue 08:58:31 AM 42.3894 -122.8797 101° East 143 165 1,800  Level Seattle Center
Tue 08:59:31 AM 42.4389 -122.9008 343° North 182 209 3,700 1,900 Climbing Seattle Center
Tue 09:00:31 AM 42.4897 -122.9206 344° North 206 237 5,600 2,033 Climbing Seattle Center
Tue 09:01:00 AM 42.2396 -122.2959 124° Southeast  Level FlightAware Approximate
Tue 09:01:32 AM 42.5494 -122.9453 343° North 226 260 7,800  Level Seattle Center
Tue 09:02:00 AM 42.2144 -122.1363 103° East  Level FlightAware Approximate
Tue 09:02:32 AM 42.5961 -122.8833 44° Northeast 254 292 9,500  Level Seattle Center
Tue 09:03:00 AM 42.1894 -121.9754 101° East  Level FlightAware Approximate
Tue 09:03:32 AM 42.5950 -122.7811 91° East 275 316 11,000  Level Seattle Center
Tue 09:04:33 AM 42.5908 -122.6661 93° East 303 349 12,500 1,636 Climbing Seattle Center
Tue 09:05:33 AM 42.5867 -122.5467 93° East 317 365 14,300 1,636 Climbing Seattle Center
Tue 09:06:34 AM 42.5839 -122.4233 92° East 325 374 15,800 1,488 Climbing Seattle Center
Tue 09:07:34 AM 42.5806 -122.2978 92° East 332 382 17,300 1,339 Climbing Seattle Center
Tue 09:08:35 AM 42.5761 -122.1689 93° East 339 390 18,500 1,190 Climbing Seattle Center
Tue 09:09:35 AM 42.5728 -122.0378 92° East 344 396 19,700 1,100 Climbing Seattle Center
Tue 09:10:35 AM 42.5678 -121.9008 93° East 357 411 20,700 992 Climbing Seattle Center
Tue 09:11:36 AM 42.5644 -121.7608 92° East 368 423 21,700 1,140 Climbing Seattle Center
Tue 09:12:36 AM 42.5594 -121.5897 92° East 376 433 23,000 1,091 Climbing Seattle Center
Tue 09:13:37 AM 42.5544 -121.4450 93° East 382 440 23,900 942 Climbing Seattle Center
Tue 09:14:37 AM 42.5500 -121.2981 92° East 388 447 24,900 893 Climbing Seattle Center
Tue 09:15:38 AM 42.5447 -121.1506 93° East 392 451 25,700 744 Climbing Seattle Center
Tue 09:16:38 AM 42.5394 -120.9992 93° East 398 458 26,400 694 Climbing Seattle Center
Tue 09:17:39 AM 42.5342 -120.8461 93° East 406 467 27,100 694 Climbing Seattle Center
Tue 09:18:39 AM 42.5272 -120.6911 93° East 410 472 27,800 694 Climbing Seattle Center
Tue 09:19:40 AM 42.5208 -120.5361 93° East 413 475 28,500 689 Climbing Seattle Center
Tue 09:20:41 AM 42.5139 -120.3775 93° East 419 482 29,200 694 Climbing Seattle Center
Tue 09:21:41 AM 42.5083 -120.2214 93° East 417 480 29,900 645 Climbing Seattle Center
Tue 09:22:42 AM 42.5014 -120.0653 93° East 416 479 30,500 492 Climbing Seattle Center
Tue 09:23:43 AM 42.4953 -119.9050 93° East 425 489 30,900 397 Climbing Seattle Center
Tue 09:24:43 AM 42.4875 -119.7450 94° East 427 491 31,300 397 Climbing Seattle Center
Tue 09:25:44 AM 42.4769 -119.5797 95° East 438 504 31,700 397 Climbing Seattle Center
Tue 09:26:44 AM 42.4689 -119.4169 94° East 437 503 32,100 397 Climbing Seattle Center
Tue 09:27:45 AM 42.4614 -119.2519 93° East 439 505 32,500 362 Climbing Seattle Center
Tue 09:28:40 AM 42.4561 -119.1108 93° East 439 505 32,800 259 Climbing Salt Lake Center
Tue 09:29:41 AM 42.4475 -118.9458 94° East 441 507 33,000 98 Climbing Salt Lake Center
Tue 09:30:42 AM 42.4358 -118.7481 95° East 442 509 33,000  Level Salt Lake Center
Tue 09:31:43 AM 42.4275 -118.6025 94° East 436 502 33,000  Level Salt Lake Center
Tue 09:32:45 AM 42.4167 -118.4186 95° East 439 505 33,000  Level Salt Lake Center
Tue 09:33:46 AM 42.4069 -118.2628 95° East 436 502 33,000  Level Salt Lake Center
Tue 09:34:47 AM 42.3958 -118.0836 95° East 452 520 33,000  Level Salt Lake Center
Tue 09:35:48 AM 42.3856 -117.9261 95° East 441 507 33,000  Level Salt Lake Center
Tue 09:36:50 AM 42.3739 -117.7403 95° East 444 511 33,000  Level Salt Lake Center
Tue 09:37:51 AM 42.3628 -117.5806 95° East 447 514 33,000  Level Salt Lake Center
Tue 09:38:52 AM 42.3500 -117.3931 95° East 449 517 33,000  Level Salt Lake Center
Tue 09:39:53 AM 42.3392 -117.2306 95° East 454 522 33,000  Level Salt Lake Center
Tue 09:40:55 AM 42.3275 -117.0703 96° East 450 518 33,000  Level Salt Lake Center
Tue 09:41:56 AM 42.3139 -116.8814 96° East 453 521 33,000  Level Salt Lake Center
Tue 09:42:57 AM 42.3025 -116.7197 95° East 453 521 33,000  Level Salt Lake Center
Tue 09:43:59 AM 42.2881 -116.5331 96° East 450 518 33,000  Level Salt Lake Center
Tue 09:45:00 AM 42.2769 -116.3728 95° East 450 518 33,000  Level Salt Lake Center
Tue 09:46:02 AM 42.2639 -116.2133 96° East 448 516 33,000  Level Salt Lake Center
Tue 09:47:03 AM 42.2489 -116.0275 96° East 446 513 33,000  Level Salt Lake Center
Tue 09:48:04 AM 42.2350 -115.8681 97° East 447 514 33,000  Level Salt Lake Center
Tue 09:49:06 AM 42.2203 -115.6825 96° East 447 514 33,000  Level Salt Lake Center
Tue 09:50:07 AM 42.2078 -115.5239 96° East 445 512 33,000  Level Salt Lake Center
Tue 09:51:09 AM 42.1939 -115.3644 97° East 447 514 33,000  Level Salt Lake Center
Tue 09:52:10 AM 42.1778 -115.1797 97° East 444 511 33,000  Level Salt Lake Center
Tue 09:53:12 AM 42.1633 -115.0200 97° East 450 518 33,000  Level Salt Lake Center
Tue 09:54:13 AM 42.1478 -114.8408 97° East 448 516 33,000  Level Salt Lake Center
Tue 09:55:15 AM 42.1328 -114.6731 97° East 450 518 33,000  Level Salt Lake Center
Tue 09:56:17 AM 42.1164 -114.5075 98° East 449 517 33,000  Level Salt Lake Center
Tue 09:57:18 AM 42.1006 -114.3431 97° East 446 513 33,000  Level Salt Lake Center
Tue 09:58:20 AM 42.0839 -114.1761 98° East 451 519 33,000  Level Salt Lake Center
Tue 09:59:21 AM 42.0689 -114.0086 97° East 452 520 33,000  Level Salt Lake Center
Tue 10:00:23 AM 42.0483 -113.8033 98° East 459 528 33,000  Level Salt Lake Center
Tue 10:01:25 AM 42.0314 -113.6322 98° East 462 532 33,000  Level Salt Lake Center
Tue 10:02:26 AM 42.0133 -113.4617 98° East 462 532 33,000  Level Salt Lake Center
Tue 10:03:28 AM 41.9839 -113.2967 103° East 456 525 33,000  Level Salt Lake Center
Tue 10:04:29 AM 41.9508 -113.1336 105° East 454 522 33,000  Level Salt Lake Center
Tue 10:05:32 AM 41.9211 -112.9692 104° East 453 521 33,000  Level Salt Lake Center
Tue 10:06:33 AM 41.8881 -112.8067 105° East 452 520 33,000  Level Salt Lake Center
Tue 10:07:34 AM 41.8567 -112.6436 104° East 452 520 33,000  Level Salt Lake Center
Tue 10:08:36 AM 41.8186 -112.4483 105° East 452 520 33,000  Level Salt Lake Center
Tue 10:09:38 AM 41.7889 -112.2875 104° East 447 514 33,000  Level Salt Lake Center
Tue 10:10:39 AM 41.7614 -112.1242 103° East 449 517 33,000  Level Salt Lake Center
Tue 10:11:41 AM 41.7472 -111.9556 96° East 455 524 33,000  Level Salt Lake Center
Tue 10:12:43 AM 41.7319 -111.7864 97° East 456 525 33,000  Level Salt Lake Center
Tue 10:13:44 AM 41.7158 -111.6158 97° East 459 528 33,000  Level Salt Lake Center
Tue 10:14:46 AM 41.6989 -111.4453 98° East 461 531 33,000  Level Salt Lake Center
Tue 10:15:48 AM 41.6831 -111.2739 97° East 462 532 33,000  Level Salt Lake Center
Tue 10:16:49 AM 41.6633 -111.0681 97° East 464 534 33,000  Level Salt Lake Center
Tue 10:17:51 AM 41.6697 -110.9069 87° East 465 535 33,000  Level Salt Lake Center
Tue 10:18:53 AM 41.7256 -110.7583 63° Northeast 466 536 33,000  Level Salt Lake Center
Tue 10:19:55 AM 41.7903 -110.5864 63° Northeast 462 532 33,000  Level Salt Lake Center
Tue 10:20:56 AM 41.8464 -110.4383 63° Northeast 464 534 33,000  Level Salt Lake Center
Tue 10:21:58 AM 41.9053 -110.2636 66° East 461 531 33,000  Level Salt Lake Center
Tue 10:23:00 AM 41.9111 -110.0986 87° East 464 534 33,000  Level Salt Lake Center
Tue 10:24:02 AM 41.8622 -109.9225 110° East 452 520 33,000  Level Salt Lake Center
Tue 10:25:03 AM 41.8125 -109.7772 115° Southeast 448 516 33,000  Level Salt Lake Center
Tue 10:26:05 AM 41.7583 -109.6033 113° Southeast 452 520 33,000  Level Salt Lake Center
Tue 10:27:07 AM 41.7133 -109.4525 112° Southeast 454 522 33,000  Level Salt Lake Center
Tue 10:28:09 AM 41.6689 -109.3008 111° Southeast 454 522 33,000  Level Salt Lake Center
Tue 10:29:11 AM 41.6158 -109.1206 111° Southeast 461 531 33,000  Level Salt Lake Center
Tue 10:30:13 AM 41.5697 -108.9647 112° Southeast 462 532 33,000  Level Salt Lake Center
Tue 10:31:15 AM 41.5236 -108.8103 112° Southeast 462 532 33,000  Level Salt Lake Center
Tue 10:32:17 AM 41.4706 -108.6319 112° Southeast 460 529 33,000  Level Salt Lake Center
Tue 10:33:09 AM 41.4311 -108.5039 112° Southeast 461 531 33,000  Level Denver Center
Tue 10:34:11 AM 41.3717 -108.3297 114° Southeast 462 532 33,000  Level Denver Center
Tue 10:35:13 AM 41.3217 -108.1800 114° Southeast 462 532 33,000  Level Denver Center
Tue 10:36:15 AM 41.2628 -108.0053 114° Southeast 463 533 33,000  Level Denver Center
Tue 10:37:17 AM 41.2122 -107.8569 114° Southeast 461 531 33,000  Level Denver Center
Tue 10:38:19 AM 41.1531 -107.6825 114° Southeast 463 533 33,000  Level Denver Center
Tue 10:39:21 AM 41.1028 -107.5347 114° Southeast 461 531 33,000  Level Denver Center
Tue 10:40:23 AM 41.0428 -107.3625 115° Southeast 459 528 33,000  Level Denver Center
Tue 10:41:25 AM 40.9931 -107.2164 114° Southeast 456 525 33,000  Level Denver Center
Tue 10:42:27 AM 40.9411 -107.0697 115° Southeast 459 528 33,000  Level Denver Center
Tue 10:43:29 AM 40.8817 -106.9000 115° Southeast 457 526 33,000  Level Denver Center
Tue 10:44:31 AM 40.8314 -106.7544 114° Southeast 456 525 33,000 -532 Level Denver Center
Tue 10:45:33 AM 40.7708 -106.5853 115° Southeast 456 525 31,900 -1,403 Descending Denver Center
Tue 10:46:35 AM 40.7206 -106.4431 115° Southeast 451 519 30,100 -1,839 Descending Denver Center
Tue 10:47:37 AM 40.6642 -106.2861 115° Southeast 430 495 28,100 -1,839 Descending Denver Center
Tue 10:48:39 AM 40.6183 -106.1558 115° Southeast 412 474 26,300 -1,728 Descending Denver Center
Tue 10:49:42 AM 40.5711 -106.0267 116° Southeast 395 455 24,500 -1,872 Descending Denver Center
Tue 10:50:44 AM 40.5222 -105.8900 115° Southeast 408 470 22,400 -2,032 Descending Denver Center
Tue 10:51:46 AM 40.4667 -105.7392 116° Southeast 446 513 20,300 -2,081 Descending Denver Center
Tue 10:52:48 AM 40.4139 -105.5950 116° Southeast 444 511 18,100 -1,597 Descending Denver Center
Tue 10:53:50 AM 40.3586 -105.4414 115° Southeast 405 466 17,000 -1,065 Descending Denver Center
Tue 10:54:52 AM 40.3572 -105.3181 91° East 342 394 15,900 -1,210 Descending Denver Center
Tue 10:55:54 AM 40.3564 -105.1958 90° East 317 365 14,500 -1,306 Descending Denver Center
Tue 10:56:56 AM 40.3475 -105.0786 96° East 323 372 13,200 -968 Descending Denver Center
Tue 10:57:58 AM 40.3033 -104.9694 118° Southeast 320 368 12,500 -871 Descending Denver Center
Tue 10:59:00 AM 40.2564 -104.8731 123° Southeast 316 364 11,400 -968 Descending Denver Center
Tue 11:00:02 AM 40.2103 -104.7797 123° Southeast 308 354 10,500 -677 Descending Denver Center
Tue 11:01:04 AM 40.1519 -104.6883 130° Southeast 308 354 10,000 -726 Descending Denver Center
Tue 11:02:06 AM 40.0739 -104.6850 178° South 281 323 9,000 -1,210 Descending Denver Center
Tue 11:03:08 AM 40.0050 -104.6858 181° South 227 261 7,500 -1,452 Descending Denver Center

Login

Don't have an account? Register now (free) for customized features, flight alerts, and more!